createdAt,value
2023-04-09T00:01:30.273Z,100871.13
2023-04-09T00:03:56.807Z,100873.06
2023-04-09T00:06:23.289Z,100872.25
2023-04-09T00:08:49.850Z,100874.16
2023-04-09T00:11:16.398Z,100875.19
2023-04-09T00:13:42.814Z,100871.00
2023-04-09T00:16:09.346Z,100860.66
2023-04-09T00:18:36.197Z,100866.06
2023-04-09T00:21:02.715Z,100872.38
2023-04-09T00:23:29.201Z,100874.34
2023-04-09T00:25:55.660Z,100868.31
2023-04-09T00:28:22.139Z,100864.16
2023-04-09T00:30:48.639Z,100856.41
2023-04-09T00:33:15.343Z,100855.66
2023-04-09T00:35:41.790Z,100850.53
2023-04-09T00:38:08.259Z,100857.66
2023-04-09T00:40:34.761Z,100857.75
2023-04-09T00:43:02.293Z,100851.75
2023-04-09T00:45:28.796Z,100851.84
2023-04-09T00:47:55.608Z,100844.94
2023-04-09T00:50:22.235Z,100846.81
2023-04-09T00:52:48.702Z,100852.88
2023-04-09T00:55:15.512Z,100844.25
2023-04-09T00:57:41.981Z,100842.56
2023-04-09T01:00:11.217Z,100846.94
2023-04-09T01:02:38.311Z,100851.31
2023-04-09T01:05:05.793Z,100844.34
2023-04-09T01:08:03.237Z,100842.72
2023-04-09T01:10:37.702Z,100841.81
2023-04-09T01:13:10.220Z,100843.63
2023-04-09T01:15:52.054Z,100845.53
2023-04-09T01:18:28.971Z,100847.22
2023-04-09T01:20:59.460Z,100847.19
2023-04-09T01:23:37.250Z,100851.72
2023-04-09T01:26:11.147Z,100846.53
2023-04-09T01:28:43.358Z,100849.13
2023-04-09T01:31:14.032Z,100844.81
2023-04-09T01:33:44.307Z,100848.44
2023-04-09T01:36:11.598Z,100848.47
2023-04-09T01:38:41.487Z,100848.56
2023-04-09T01:41:12.487Z,100846.88
2023-04-09T01:43:39.887Z,100848.69
2023-04-09T01:46:06.512Z,100848.78
2023-04-09T01:48:34.104Z,100848.88
2023-04-09T01:51:01.347Z,100847.19
2023-04-09T01:53:31.110Z,100851.63
2023-04-09T01:56:01.485Z,100845.66
2023-04-09T01:58:28.159Z,100841.34
2023-04-09T02:01:06.564Z,100837.16
2023-04-09T02:03:37.996Z,100832.81
2023-04-09T02:06:15.630Z,100838.13
2023-04-09T02:08:47.115Z,100836.50
2023-04-09T02:11:15.952Z,100835.66
2023-04-09T02:13:44.076Z,100837.50
2023-04-09T02:16:13.741Z,100841.06
2023-04-09T02:18:40.284Z,100837.63
2023-04-09T02:21:07.308Z,100837.72
2023-04-09T02:23:33.718Z,100830.75
2023-04-09T02:26:01.913Z,100836.09
2023-04-09T02:28:28.453Z,100828.25
2023-04-09T02:30:54.924Z,100826.59
2023-04-09T02:33:21.497Z,100823.16
2023-04-09T02:35:47.972Z,100821.44
2023-04-09T02:38:15.899Z,100821.53
2023-04-09T02:40:42.417Z,100823.31
2023-04-09T02:43:10.149Z,100818.19
2023-04-09T02:45:36.738Z,100821.69
2023-04-09T02:48:03.535Z,100815.63
2023-04-09T02:50:29.972Z,100815.63
2023-04-09T02:52:56.452Z,100807.88
2023-04-09T02:55:23.257Z,100811.41
2023-04-09T02:57:49.695Z,100811.47
2023-04-09T03:00:16.293Z,100801.00
2023-04-09T03:02:43.001Z,100810.72
2023-04-09T03:05:09.775Z,100809.00
2023-04-09T03:07:36.187Z,100801.19
2023-04-09T03:10:02.681Z,100803.81
2023-04-09T03:12:29.139Z,100805.59
2023-04-09T03:14:55.743Z,100800.44
2023-04-09T03:17:24.600Z,100799.59
2023-04-09T03:19:51.196Z,100791.81
2023-04-09T03:22:17.568Z,100794.44
2023-04-09T03:24:44.049Z,100783.16
2023-04-09T03:27:10.556Z,100784.06
2023-04-09T03:29:37.032Z,100779.69
2023-04-09T03:32:03.472Z,100782.31
2023-04-09T03:34:29.917Z,100776.28
2023-04-09T03:36:56.350Z,100781.56
2023-04-09T03:39:25.066Z,100780.75
2023-04-09T03:41:51.510Z,100775.50
2023-04-09T03:44:17.931Z,100776.44
2023-04-09T03:46:44.373Z,100777.28
2023-04-09T03:49:10.830Z,100772.09
2023-04-09T03:51:37.256Z,100776.53
2023-04-09T03:54:03.851Z,100772.13
2023-04-09T03:56:30.316Z,100770.41
2023-04-09T03:58:56.729Z,100769.56
2023-04-09T04:01:23.177Z,100769.56
2023-04-09T04:03:49.921Z,100769.56
2023-04-09T04:06:16.472Z,100769.56
2023-04-09T04:11:20.443Z,100771.28
2023-04-09T04:13:46.937Z,100770.41
2023-04-09T04:16:13.450Z,100770.44
2023-04-09T04:18:39.992Z,100779.19
2023-04-09T04:21:13.040Z,100771.41
2023-04-09T04:23:39.419Z,100774.88
2023-04-09T04:26:12.471Z,100780.09
2023-04-09T04:28:39.314Z,100782.75
2023-04-09T04:31:12.474Z,100779.22
2023-04-09T04:33:41.175Z,100781.91
2023-04-09T04:36:12.877Z,100779.44
2023-04-09T04:38:41.256Z,100786.38
2023-04-09T04:41:08.235Z,100778.66
2023-04-09T04:43:34.952Z,100779.53
2023-04-09T04:46:01.867Z,100777.00
2023-04-09T04:48:29.276Z,100784.91
2023-04-09T04:50:57.623Z,100787.56
2023-04-09T04:53:24.271Z,100784.09
2023-04-09T04:55:50.954Z,100779.81
2023-04-09T04:58:18.048Z,100772.00
2023-04-09T05:00:45.301Z,100781.63
2023-04-09T05:03:12.708Z,100783.41
2023-04-09T05:05:39.288Z,100772.09
2023-04-09T05:08:06.017Z,100774.69
2023-04-09T05:10:32.533Z,100777.31
2023-04-09T05:12:59.087Z,100768.56
2023-04-09T05:15:25.586Z,100770.28
2023-04-09T05:17:52.415Z,100772.84
2023-04-09T05:20:18.853Z,100766.72
2023-04-09T05:22:45.394Z,100776.25
2023-04-09T05:25:11.849Z,100776.25
2023-04-09T05:27:38.338Z,100770.13
2023-04-09T05:30:05.043Z,100777.09
2023-04-09T05:32:31.587Z,100776.19
2023-04-09T05:34:58.173Z,100777.00
2023-04-09T05:37:25.424Z,100779.56
2023-04-09T05:39:52.018Z,100780.41
2023-04-09T05:42:18.671Z,100777.75
2023-04-09T05:44:45.308Z,100779.44
2023-04-09T05:47:11.772Z,100781.09
2023-04-09T05:49:38.349Z,100783.69
2023-04-09T05:52:05.064Z,100787.09
2023-04-09T05:54:31.963Z,100789.66
2023-04-09T05:56:58.504Z,100789.63
2023-04-09T05:59:25.028Z,100788.66
2023-04-09T06:01:51.507Z,100787.72
2023-04-09T06:04:18.415Z,100788.50
2023-04-09T06:06:45.886Z,100786.69
2023-04-09T06:09:12.698Z,100784.81
2023-04-09T06:11:39.234Z,100789.09
2023-04-09T06:14:05.859Z,100796.81
2023-04-09T06:16:33.688Z,100796.72
2023-04-09T06:19:00.189Z,100795.69
2023-04-09T06:21:26.829Z,100795.59
2023-04-09T06:23:53.958Z,100793.72
2023-04-09T06:26:21.153Z,100796.22
2023-04-09T06:28:47.748Z,100800.47
2023-04-09T06:31:14.339Z,100792.50
2023-04-09T06:33:41.259Z,100804.59
2023-04-09T06:36:08.111Z,100803.56
2023-04-09T06:38:34.620Z,100813.03
2023-04-09T06:41:01.140Z,100809.38
2023-04-09T06:43:27.825Z,100812.72
2023-04-09T06:45:54.338Z,100813.38
2023-04-09T06:48:20.899Z,100812.34
2023-04-09T06:50:47.483Z,100811.25
2023-04-09T06:53:15.138Z,100813.69
2023-04-09T06:55:42.091Z,100815.19
2023-04-09T06:58:08.646Z,100820.25
2023-04-09T07:00:35.491Z,100819.13
2023-04-09T07:03:02.609Z,100823.34
2023-04-09T07:05:30.725Z,100821.34
2023-04-09T07:07:57.186Z,100822.91
2023-04-09T07:10:23.786Z,100824.38
2023-04-09T07:12:50.258Z,100822.34
2023-04-09T07:15:16.773Z,100825.59
2023-04-09T07:17:43.368Z,100823.56
2023-04-09T07:20:10.465Z,100825.88
2023-04-09T07:22:37.097Z,100827.34
2023-04-09T07:25:04.030Z,100821.78
2023-04-09T07:27:30.535Z,100824.03
2023-04-09T07:29:59.118Z,100830.69
2023-04-09T07:32:27.912Z,100821.56
2023-04-09T07:34:55.741Z,100826.50
2023-04-09T07:37:22.327Z,100817.38
2023-04-09T07:39:49.647Z,100822.31
2023-04-09T07:42:16.115Z,100825.56
2023-04-09T07:44:43.849Z,100820.09
2023-04-09T07:47:11.271Z,100817.22
2023-04-09T07:49:40.988Z,100818.75
2023-04-09T07:52:08.167Z,100834.34
2023-04-09T07:54:35.430Z,100831.50
2023-04-09T07:57:02.089Z,100829.59
2023-04-09T07:59:29.653Z,100833.78
2023-04-09T08:01:56.782Z,100831.03
2023-04-09T08:04:23.501Z,100836.06
2023-04-09T08:06:51.110Z,100842.03
2023-04-09T08:09:18.687Z,100834.94
2023-04-09T08:11:45.860Z,100842.66
2023-04-09T08:14:13.078Z,100838.94
2023-04-09T08:16:41.628Z,100843.13
2023-04-09T08:19:09.294Z,100843.00
2023-04-09T08:21:46.100Z,100844.72
2023-04-09T08:24:12.868Z,100842.69
2023-04-09T08:26:40.339Z,100843.44
2023-04-09T08:29:08.423Z,100844.09
2023-04-09T08:31:36.557Z,100844.78
2023-04-09T08:34:03.425Z,100840.16
2023-04-09T08:36:30.072Z,100841.69
2023-04-09T08:38:57.061Z,100843.16
2023-04-09T08:41:26.171Z,100841.19
2023-04-09T08:43:58.248Z,100843.47
2023-04-09T08:46:26.135Z,100840.53
2023-04-09T08:48:53.362Z,100838.44
2023-04-09T08:51:22.371Z,100848.66
2023-04-09T08:54:00.777Z,100847.44
2023-04-09T08:56:30.459Z,100840.78
2023-04-09T08:58:57.028Z,100841.22
2023-04-09T09:01:24.417Z,100833.69
2023-04-09T09:04:01.820Z,100836.84
2023-04-09T09:06:32.950Z,100827.47
2023-04-09T09:09:04.973Z,100827.88
2023-04-09T09:11:32.486Z,100832.59
2023-04-09T09:14:06.872Z,100831.22
2023-04-09T09:16:35.889Z,100823.59
2023-04-09T09:19:03.106Z,100837.97
2023-04-09T09:21:30.199Z,100833.88
2023-04-09T09:23:57.663Z,100826.34
2023-04-09T09:26:27.240Z,100835.53
2023-04-09T09:28:54.009Z,100833.22
2023-04-09T09:31:22.462Z,100820.38
2023-04-09T09:33:50.597Z,100827.84
2023-04-09T09:36:34.363Z,100830.16
2023-04-09T09:39:10.093Z,100833.00
2023-04-09T09:41:36.978Z,100814.75
2023-04-09T09:44:04.555Z,100824.69
2023-04-09T09:46:35.771Z,100829.41
2023-04-09T09:49:02.520Z,100818.91
2023-04-09T09:51:29.146Z,100821.84
2023-04-09T09:53:57.221Z,100816.69
2023-04-09T09:56:35.084Z,100815.25
2023-04-09T09:59:07.883Z,100817.03
2023-04-09T10:01:37.553Z,100816.16
2023-04-09T10:04:07.099Z,100808.50
2023-04-09T10:06:41.664Z,100809.66
2023-04-09T10:09:08.582Z,100807.31
2023-04-09T10:11:37.058Z,100792.00
2023-04-09T10:14:05.115Z,100801.97
2023-04-09T10:16:32.064Z,100790.72
2023-04-09T10:18:59.729Z,100795.38
2023-04-09T10:21:43.996Z,100792.16
2023-04-09T10:24:11.192Z,100792.72
2023-04-09T10:26:41.750Z,100790.06
2023-04-09T10:29:16.635Z,100786.66
2023-04-09T10:31:52.346Z,100780.69
2023-04-09T10:34:23.559Z,100772.13
2023-04-09T10:36:55.941Z,100777.78
2023-04-09T10:39:32.004Z,100776.53
2023-04-09T10:42:00.105Z,100776.03
2023-04-09T10:44:27.905Z,100774.97
2023-04-09T10:46:55.390Z,100772.22
2023-04-09T10:49:23.495Z,100761.50
2023-04-09T10:51:53.605Z,100772.88
2023-04-09T10:54:35.224Z,100772.78
2023-04-09T10:57:07.654Z,100777.91
2023-04-09T10:59:38.642Z,100765.44
2023-04-09T11:02:08.923Z,100763.75
2023-04-09T11:04:51.876Z,100755.97
2023-04-09T11:07:22.273Z,100758.03
2023-04-09T11:09:48.742Z,100755.94
2023-04-09T11:12:15.326Z,100755.88
2023-04-09T11:14:41.747Z,100750.59
2023-04-09T11:17:08.271Z,100750.06
2023-04-09T11:19:34.886Z,100739.81
2023-04-09T11:22:06.448Z,100744.84
2023-04-09T11:24:43.280Z,100741.84
2023-04-09T11:27:09.813Z,100740.94
2023-04-09T11:29:36.633Z,100743.91
2023-04-09T11:32:05.136Z,100744.41
2023-04-09T11:34:32.271Z,100739.66
2023-04-09T11:36:59.752Z,100728.66
2023-04-09T11:39:26.378Z,100726.91
2023-04-09T11:41:53.230Z,100726.38
2023-04-09T11:44:20.960Z,100723.75
2023-04-09T11:46:49.151Z,100723.31
2023-04-09T11:49:17.200Z,100708.78
2023-04-09T11:51:43.710Z,100716.78
2023-04-09T11:54:11.870Z,100716.34
2023-04-09T11:56:38.399Z,100713.75
2023-04-09T11:59:04.947Z,100715.19
2023-04-09T12:01:35.293Z,100705.34
2023-04-09T12:04:02.058Z,100716.84
2023-04-09T12:06:29.700Z,100712.59
2023-04-09T12:08:57.349Z,100713.00
2023-04-09T12:11:31.712Z,100705.75
2023-04-09T12:14:07.641Z,100713.50
2023-04-09T12:16:35.468Z,100706.84
2023-04-09T12:19:03.418Z,100707.22
2023-04-09T12:21:48.935Z,100707.44
2023-04-09T12:24:17.090Z,100708.81
2023-04-09T12:26:46.016Z,100714.31
2023-04-09T12:29:16.977Z,100717.41
2023-04-09T12:31:44.521Z,100710.59
2023-04-09T12:34:11.206Z,100709.41
2023-04-09T12:36:38.889Z,100700.47
2023-04-09T12:39:05.439Z,100696.69
2023-04-09T12:41:31.907Z,100701.41
2023-04-09T12:43:58.459Z,100703.28
2023-04-09T12:46:25.808Z,100701.75
2023-04-09T12:48:52.292Z,100703.28
2023-04-09T12:51:18.867Z,100704.09
2023-04-09T12:53:45.292Z,100709.06
2023-04-09T12:56:11.730Z,100706.31
2023-04-09T12:58:38.480Z,100702.31
2023-04-09T13:01:05.404Z,100703.81
2023-04-09T13:03:32.344Z,100706.06
2023-04-09T13:05:58.973Z,100704.28
2023-04-09T13:08:25.469Z,100702.75
2023-04-09T13:10:51.952Z,100707.06
2023-04-09T13:13:18.388Z,100704.03
2023-04-09T13:15:45.010Z,100697.72
2023-04-09T13:18:12.756Z,100698.88
2023-04-09T13:20:39.394Z,100695.09
2023-04-09T13:23:06.347Z,100695.69
2023-04-09T13:25:32.838Z,100694.69
2023-04-09T13:28:24.037Z,100691.00
2023-04-09T13:30:48.022Z,100690.59
2023-04-09T13:33:14.510Z,100685.06
2023-04-09T13:35:40.984Z,100676.97
2023-04-09T13:38:07.600Z,100673.09
2023-04-09T13:40:33.989Z,100679.09
2023-04-09T13:43:01.017Z,100673.50
2023-04-09T13:45:27.472Z,100673.16
2023-04-09T13:47:53.980Z,100670.34
2023-04-09T13:50:20.438Z,100671.06
2023-04-09T13:52:46.879Z,100668.38
2023-04-09T13:55:13.293Z,100669.19
2023-04-09T13:57:39.722Z,100669.69
2023-04-09T14:00:08.104Z,100666.56
2023-04-09T14:02:34.747Z,100659.69
2023-04-09T14:05:03.568Z,100665.16
2023-04-09T14:07:30.781Z,100659.84
2023-04-09T14:09:57.265Z,100653.31
2023-04-09T14:12:24.927Z,100660.34
2023-04-09T14:14:51.800Z,100654.38
2023-04-09T14:17:18.341Z,100649.16
2023-04-09T14:19:44.780Z,100648.06
2023-04-09T14:22:11.471Z,100653.50
2023-04-09T14:24:39.879Z,100652.91
2023-04-09T14:27:07.690Z,100641.78
2023-04-09T14:29:34.614Z,100638.59
2023-04-09T14:32:01.322Z,100634.34
2023-04-09T14:34:31.219Z,100634.63
2023-04-09T14:36:57.771Z,100629.00
2023-04-09T14:39:24.333Z,100624.88
2023-04-09T14:41:50.869Z,100639.53
2023-04-09T14:44:17.610Z,100645.09
2023-04-09T14:46:44.258Z,100642.84
2023-04-09T14:49:10.679Z,100640.16
2023-04-09T14:51:37.312Z,100639.78
2023-04-09T14:54:03.816Z,100647.09
2023-04-09T14:56:30.311Z,100644.28
2023-04-09T14:58:56.833Z,100646.41
2023-04-09T15:01:23.267Z,100637.09
2023-04-09T15:03:49.909Z,100646.59
2023-04-09T15:06:16.614Z,100640.06
2023-04-09T15:08:43.130Z,100643.56
2023-04-09T15:11:15.805Z,100635.78
2023-04-09T15:13:42.342Z,100638.78
2023-04-09T15:16:08.945Z,100634.13
2023-04-09T15:18:37.329Z,100637.00
2023-04-09T15:21:03.935Z,100639.63
2023-04-09T15:23:30.707Z,100634.94
2023-04-09T15:25:57.237Z,100634.56
2023-04-09T15:28:23.750Z,100629.94
2023-04-09T15:30:50.417Z,100625.28
2023-04-09T15:33:16.863Z,100619.06
2023-04-09T15:35:43.323Z,100622.38
2023-04-09T15:38:09.851Z,100616.78
2023-04-09T15:40:36.363Z,100626.38
2023-04-09T15:43:02.765Z,100619.91
2023-04-09T15:45:29.264Z,100616.84
2023-04-09T15:47:55.755Z,100620.78
2023-04-09T15:50:22.278Z,100633.34
2023-04-09T15:52:48.930Z,100629.09
2023-04-09T15:55:16.040Z,100628.97
2023-04-09T15:57:46.641Z,100625.44
2023-04-09T16:00:13.377Z,100623.44
2023-04-09T16:02:40.852Z,100621.41
2023-04-09T16:05:07.793Z,100631.84
2023-04-09T16:07:34.928Z,100624.69
2023-04-09T16:13:35.716Z,100618.66
2023-04-09T16:16:02.480Z,100610.47
2023-04-09T16:18:29.424Z,100607.59
2023-04-09T16:20:57.126Z,100604.94
2023-04-09T16:23:25.331Z,100608.22
2023-04-09T16:25:52.227Z,100600.78
2023-04-09T16:28:21.610Z,100608.34
2023-04-09T16:30:50.281Z,100610.56
2023-04-09T16:33:17.007Z,100617.78
2023-04-09T16:35:43.566Z,100610.78
2023-04-09T16:38:10.341Z,100605.47
2023-04-09T16:40:37.066Z,100593.88
2023-04-09T16:43:04.276Z,100588.53
2023-04-09T16:45:32.033Z,100591.34
2023-04-09T16:47:58.656Z,100585.25
2023-04-09T16:50:25.321Z,100587.09
2023-04-09T16:52:51.935Z,100584.44
2023-04-09T16:55:18.489Z,100581.88
2023-04-09T16:57:45.065Z,100579.41
2023-04-09T17:00:12.796Z,100574.53
2023-04-09T17:02:39.611Z,100582.91
2023-04-09T17:05:06.676Z,100572.03
2023-04-09T17:07:33.643Z,100570.00
2023-04-09T17:10:02.829Z,100571.50
2023-04-09T17:12:29.395Z,100572.91
2023-04-09T17:14:56.020Z,100570.69
2023-04-09T17:17:22.520Z,100568.50
2023-04-09T17:19:49.094Z,100564.47
2023-04-09T17:22:17.779Z,100556.91
2023-04-09T17:24:44.932Z,100565.28
2023-04-09T17:27:11.433Z,100561.22
2023-04-09T17:29:38.060Z,100558.03
2023-04-09T17:32:04.736Z,100545.03
2023-04-09T17:34:31.322Z,100537.25
2023-04-09T17:36:59.772Z,100548.09
2023-04-09T17:39:27.100Z,100544.91
2023-04-09T17:41:56.381Z,100546.13
2023-04-09T17:44:24.978Z,100557.13
2023-04-09T17:46:52.013Z,100554.97
2023-04-09T17:49:18.492Z,100557.88
2023-04-09T17:51:45.092Z,100560.84
2023-04-09T17:54:12.513Z,100568.97
2023-04-09T17:56:39.129Z,100571.00
2023-04-09T17:59:06.731Z,100571.25
2023-04-09T18:01:33.464Z,100581.38
2023-04-09T18:04:01.570Z,100580.88
2023-04-09T18:06:28.394Z,100581.38
2023-04-09T18:08:54.903Z,100570.47
2023-04-09T18:11:21.650Z,100571.13
2023-04-09T18:13:48.439Z,100570.81
2023-04-09T18:16:15.141Z,100573.28
2023-04-09T18:18:41.618Z,100571.25
2023-04-09T18:21:08.178Z,100579.81
2023-04-09T18:23:34.887Z,100583.00
2023-04-09T18:26:01.778Z,100585.34
2023-04-09T18:28:28.334Z,100582.34
2023-04-09T18:30:54.971Z,100584.56
2023-04-09T18:33:21.680Z,100585.09
2023-04-09T18:35:48.229Z,100594.31
2023-04-09T18:38:14.967Z,100587.72
2023-04-09T18:40:43.558Z,100591.63
2023-04-09T18:43:11.763Z,100591.91
2023-04-09T18:45:39.637Z,100593.09
2023-04-09T18:48:08.059Z,100596.91
2023-04-09T18:50:34.933Z,100591.13
2023-04-09T18:53:03.415Z,100598.44
2023-04-09T18:55:30.142Z,100585.53
2023-04-09T18:57:57.541Z,100596.38
2023-04-09T19:00:24.117Z,100596.59
2023-04-09T19:02:50.908Z,100596.88
2023-04-09T19:05:17.626Z,100600.59
2023-04-09T19:07:44.037Z,100600.84
2023-04-09T19:10:10.828Z,100599.28
2023-04-09T19:12:38.038Z,100594.22
2023-04-09T19:15:06.145Z,100598.00
2023-04-09T19:17:34.023Z,100596.44
2023-04-09T19:20:01.072Z,100593.09
2023-04-09T19:22:28.122Z,100596.81
2023-04-09T19:24:54.698Z,100597.91
2023-04-09T19:27:21.135Z,100596.38
2023-04-09T19:29:47.698Z,100601.03
2023-04-09T19:32:14.744Z,100602.13
2023-04-09T19:34:41.331Z,100599.72
2023-04-09T19:40:04.693Z,100596.69
2023-04-09T19:42:32.878Z,100586.34
2023-04-09T19:45:00.353Z,100586.66
2023-04-09T19:47:27.755Z,100585.09
2023-04-09T19:49:54.521Z,100581.81
2023-04-09T19:52:21.326Z,100584.59
2023-04-09T19:54:48.093Z,100580.41
2023-04-09T19:57:15.322Z,100578.84
2023-04-09T19:59:41.967Z,100583.44
2023-04-09T20:02:08.811Z,100587.97
2023-04-09T20:04:35.657Z,100578.53
2023-04-09T20:07:02.178Z,100576.03
2023-04-09T20:09:29.170Z,100580.59
2023-04-09T20:11:55.800Z,100577.25
2023-04-09T20:14:22.415Z,100576.50
2023-04-09T20:16:48.985Z,100585.41
2023-04-09T20:19:15.537Z,100576.78
2023-04-09T20:21:43.551Z,100586.47
2023-04-09T20:24:10.084Z,100590.97
2023-04-09T20:26:36.704Z,100586.63
2023-04-09T20:29:03.186Z,100585.75
2023-04-09T20:31:30.944Z,100591.97
2023-04-09T20:33:57.591Z,100590.25
2023-04-09T20:36:24.308Z,100590.34
2023-04-09T20:38:50.857Z,100577.22
2023-04-09T20:41:17.481Z,100572.88
2023-04-09T20:43:44.108Z,100575.59
2023-04-09T20:46:11.025Z,100575.72
2023-04-09T20:48:37.962Z,100582.00
2023-04-09T20:51:10.066Z,100583.94
2023-04-09T20:53:37.524Z,100578.59
2023-04-09T20:56:06.047Z,100577.78
2023-04-09T20:58:33.475Z,100569.94
2023-04-09T21:01:06.430Z,100577.22
2023-04-09T21:03:36.744Z,100570.25
2023-04-09T21:06:03.528Z,100569.38
2023-04-09T21:08:30.826Z,100571.31
2023-04-09T21:10:57.401Z,100569.75
2023-04-09T21:13:24.333Z,100564.56
2023-04-09T21:15:51.290Z,100555.00
2023-04-09T21:18:17.899Z,100552.44
2023-04-09T21:20:47.703Z,100548.25
2023-04-09T21:23:15.072Z,100544.78
2023-04-09T21:25:42.076Z,100543.91
2023-04-09T21:28:09.009Z,100530.78
2023-04-09T21:30:37.820Z,100529.97
2023-04-09T21:33:06.627Z,100522.06
2023-04-09T21:35:34.084Z,100518.56
2023-04-09T21:38:00.668Z,100514.22
2023-04-09T21:40:27.205Z,100515.13
2023-04-09T21:42:53.723Z,100516.94
2023-04-09T21:45:21.140Z,100517.00
2023-04-09T21:47:47.671Z,100520.56
2023-04-09T21:50:14.733Z,100524.13
2023-04-09T21:52:41.750Z,100527.66
2023-04-09T21:55:10.311Z,100523.41
2023-04-09T21:57:36.875Z,100527.81
2023-04-09T22:00:05.336Z,100529.59
2023-04-09T22:02:31.966Z,100528.78
2023-04-09T22:04:59.957Z,100533.28
2023-04-09T22:07:26.816Z,100540.31
2023-04-09T22:09:58.107Z,100539.63
2023-04-09T22:12:35.146Z,100539.63
2023-04-09T22:15:18.914Z,100528.31
2023-04-09T22:17:51.065Z,100537.13
2023-04-09T22:20:31.432Z,100540.75
2023-04-09T22:23:00.915Z,100532.09
2023-04-09T22:25:34.805Z,100531.28
2023-04-09T22:28:14.766Z,100529.56
2023-04-09T22:30:49.752Z,100526.25
2023-04-09T22:33:21.592Z,100520.09
2023-04-09T22:35:50.356Z,100528.00
2023-04-09T22:38:22.817Z,100530.69
2023-04-09T22:40:56.060Z,100525.50
2023-04-09T22:43:27.195Z,100520.34
2023-04-09T22:46:18.113Z,100521.28
2023-04-09T22:49:03.902Z,100520.41
2023-04-09T22:51:45.452Z,100526.50
2023-04-09T22:54:12.092Z,100533.56
2023-04-09T22:56:38.639Z,100537.97
2023-04-09T22:59:06.101Z,100540.59
2023-04-09T23:01:32.774Z,100532.75
2023-04-09T23:03:59.256Z,100536.31
2023-04-09T23:06:25.901Z,100534.56
2023-04-09T23:08:52.545Z,100534.56
2023-04-09T23:11:19.369Z,100537.19
2023-04-09T23:13:47.050Z,100540.72
2023-04-09T23:16:13.976Z,100538.09
2023-04-09T23:18:40.723Z,100544.22
2023-04-09T23:21:08.717Z,100547.72
2023-04-09T23:23:36.353Z,100546.78
2023-04-09T23:26:02.923Z,100545.00
2023-04-09T23:28:29.883Z,100535.31
2023-04-09T23:30:56.888Z,100537.03
2023-04-09T23:33:24.017Z,100535.25
2023-04-09T23:35:50.938Z,100526.50
2023-04-09T23:38:17.632Z,100526.50
2023-04-09T23:40:47.203Z,100526.50
2023-04-09T23:43:19.337Z,100519.53
2023-04-09T23:45:56.199Z,100520.41
2023-04-09T23:48:40.000Z,100510.69
2023-04-09T23:51:06.691Z,100513.34
2023-04-09T23:53:33.233Z,100508.06
2023-04-09T23:56:02.024Z,100507.22
2023-04-09T23:58:28.504Z,100500.22
